Time;durP1;ratioP1;P1;durP2;ratioP2;P2;SDS_P1;SDS_P2;PMS_P1;PMS_P2;Temp;Humidity;BMP_temperature;BMP_pressure;BME280_temperature;BME280_humidity;BME280_pressure;Samples;Min_cycle;Max_cycle;Signal;HPM_P1;HPM_P2
2021/10/18 00:00:15;;;;;;;12.07;4.93;;;;;;;;;;4988470;28;20037;-62
2021/10/18 00:02:41;;;;;;;12.93;5.63;;;;;;;;;;5000453;28;20159;-62
2021/10/18 00:05:13;;;;;;;12.10;5.50;;;;;;;;;;5020479;28;20032;-61
2021/10/18 00:07:39;;;;;;;12.00;5.80;;;;;;;;;;5017140;28;20135;-62
2021/10/18 00:10:08;;;;;;;10.07;4.75;;;;;;;;;;5020197;28;20033;-62
2021/10/18 00:12:34;;;;;;;14.05;4.90;;;;;;;;;;4987480;28;20028;-63
2021/10/18 00:14:59;;;;;;;13.07;5.28;;;;;;;;;;4983553;28;20118;-62
2021/10/18 00:17:29;;;;;;;22.10;5.78;;;;;;;;;;4990143;28;20033;-63
2021/10/18 00:19:57;;;;;;;6.93;5.10;;;;;;;;;;5004838;28;20028;-62
2021/10/18 00:22:23;;;;;;;10.38;6.10;;;;;;;;;;5005147;28;20129;-61
2021/10/18 00:24:52;;;;;;;9.80;5.07;;;;;;;;;;5020554;28;22055;-62
2021/10/18 00:27:18;;;;;;;12.50;5.57;;;;;;;;;;5001082;28;21295;-62
2021/10/18 00:29:46;;;;;;;10.18;5.15;;;;;;;;;;5001824;28;20025;-62
2021/10/18 00:32:14;;;;;;;13.90;5.72;;;;;;;;;;5003077;28;20033;-62
2021/10/18 00:34:42;;;;;;;9.85;5.25;;;;;;;;;;5016422;28;20021;-64
2021/10/18 00:37:10;;;;;;;10.40;5.47;;;;;;;;;;5014208;28;20041;-62
2021/10/18 00:39:36;;;;;;;16.48;5.65;;;;;;;;;;5004464;28;20618;-62
2021/10/18 00:42:02;;;;;;;10.45;6.15;;;;;;;;;;5006341;28;20173;-62
2021/10/18 00:44:31;;;;;;;12.20;5.88;;;;;;;;;;4999730;28;21073;-62
2021/10/18 00:46:56;;;;;;;13.15;6.20;;;;;;;;;;5004773;28;20185;-65
2021/10/18 00:49:22;;;;;;;13.02;6.10;;;;;;;;;;5001025;28;20551;-63
2021/10/18 00:51:53;;;;;;;12.98;5.53;;;;;;;;;;5018638;28;20052;-63
2021/10/18 00:54:20;;;;;;;8.70;5.60;;;;;;;;;;5005119;28;20068;-63
2021/10/18 00:56:46;;;;;;;15.32;5.95;;;;;;;;;;5018560;28;20053;-63
2021/10/18 00:59:14;;;;;;;16.67;6.75;;;;;;;;;;4998613;28;20025;-63
2021/10/18 01:01:40;;;;;;;12.73;6.30;;;;;;;;;;4994950;28;20035;-61
2021/10/18 01:04:06;;;;;;;13.05;6.05;;;;;;;;;;5001291;28;20043;-63
2021/10/18 01:06:31;;;;;;;14.75;6.68;;;;;;;;;;5020509;28;21283;-63
2021/10/18 01:08:57;;;;;;;16.52;6.55;;;;;;;;;;4983974;28;20029;-62
2021/10/18 01:11:25;;;;;;;10.07;6.60;;;;;;;;;;5002087;28;20028;-62
2021/10/18 01:13:50;;;;;;;16.95;6.65;;;;;;;;;;5004881;28;20125;-62
2021/10/18 01:16:17;;;;;;;14.48;7.07;;;;;;;;;;5000996;28;20029;-63
2021/10/18 01:18:44;;;;;;;17.17;7.47;;;;;;;;;;5019765;28;20111;-62
2021/10/18 01:21:14;;;;;;;13.18;7.25;;;;;;;;;;5019162;28;20564;-63
2021/10/18 01:23:40;;;;;;;15.73;7.20;;;;;;;;;;4992928;28;20044;-63
2021/10/18 01:26:10;;;;;;;12.75;6.90;;;;;;;;;;5005197;28;20028;-62
2021/10/18 01:28:36;;;;;;;14.95;6.75;;;;;;;;;;5002422;28;21333;-63
2021/10/18 01:31:03;;;;;;;13.57;7.63;;;;;;;;;;5019470;28;20490;-61
2021/10/18 01:33:29;;;;;;;14.95;7.55;;;;;;;;;;4990901;28;20512;-62
2021/10/18 01:35:55;;;;;;;18.20;7.22;;;;;;;;;;5005566;28;20110;-62
2021/10/18 01:38:21;;;;;;;17.55;7.40;;;;;;;;;;5018498;28;20074;-62
2021/10/18 01:40:46;;;;;;;15.60;7.68;;;;;;;;;;5021985;28;20033;-62
2021/10/18 01:43:12;;;;;;;14.00;7.72;;;;;;;;;;5000286;28;20033;-62
2021/10/18 01:45:37;;;;;;;16.52;8.95;;;;;;;;;;5019136;28;20017;-62
2021/10/18 01:48:03;;;;;;;15.15;8.18;;;;;;;;;;5016514;28;20033;-62
2021/10/18 01:50:29;;;;;;;17.45;7.68;;;;;;;;;;5019699;28;20040;-62
2021/10/18 01:52:57;;;;;;;18.90;7.55;;;;;;;;;;5005630;28;20063;-63
2021/10/18 01:55:23;;;;;;;11.05;6.80;;;;;;;;;;5017452;28;20060;-63
2021/10/18 01:57:50;;;;;;;16.55;7.93;;;;;;;;;;5002903;28;20919;-63
2021/10/18 02:00:21;;;;;;;14.90;7.00;;;;;;;;;;4998433;28;20051;-63
2021/10/18 02:02:47;;;;;;;14.00;6.97;;;;;;;;;;5018479;28;20036;-63
2021/10/18 02:05:12;;;;;;;13.70;7.35;;;;;;;;;;5004392;28;20372;-62
2021/10/18 02:07:42;;;;;;;15.02;6.63;;;;;;;;;;5018377;28;20040;-62
2021/10/18 02:10:07;;;;;;;14.55;6.75;;;;;;;;;;5002854;28;20029;-63
2021/10/18 02:12:35;;;;;;;14.50;6.50;;;;;;;;;;5018229;28;20028;-63
2021/10/18 02:15:00;;;;;;;15.15;6.70;;;;;;;;;;4992149;28;20082;-62
2021/10/18 02:17:26;;;;;;;16.42;7.10;;;;;;;;;;5017039;28;20041;-63
2021/10/18 02:19:52;;;;;;;13.02;6.93;;;;;;;;;;5018146;28;21031;-63
2021/10/18 02:22:19;;;;;;;14.38;7.22;;;;;;;;;;5002606;28;20029;-63
2021/10/18 02:24:47;;;;;;;14.38;7.65;;;;;;;;;;5002044;28;20669;-62
2021/10/18 02:27:15;;;;;;;18.92;8.20;;;;;;;;;;5005358;28;20359;-62
2021/10/18 02:29:43;;;;;;;11.90;6.30;;;;;;;;;;5000013;28;20044;-63
2021/10/18 02:32:12;;;;;;;12.57;7.78;;;;;;;;;;5019647;28;20056;-62
2021/10/18 02:34:37;;;;;;;19.25;7.32;;;;;;;;;;5001804;28;20041;-62
2021/10/18 02:37:06;;;;;;;17.80;6.65;;;;;;;;;;5002267;28;20025;-63
2021/10/18 02:39:31;;;;;;;18.52;7.68;;;;;;;;;;4999202;28;20099;-63
2021/10/18 02:41:57;;;;;;;15.07;7.63;;;;;;;;;;4997299;28;20683;-62
2021/10/18 02:44:24;;;;;;;15.98;7.22;;;;;;;;;;4982313;28;20037;-63
2021/10/18 02:46:50;;;;;;;14.27;6.97;;;;;;;;;;5017069;28;20735;-63
2021/10/18 02:49:16;;;;;;;16.70;7.32;;;;;;;;;;5016303;28;20029;-64
2021/10/18 02:51:42;;;;;;;13.45;7.05;;;;;;;;;;5019018;28;20033;-62
2021/10/18 02:54:09;;;;;;;16.05;7.40;;;;;;;;;;4999829;28;20033;-62
2021/10/18 02:56:35;;;;;;;13.45;6.57;;;;;;;;;;4987311;28;20040;-63
2021/10/18 02:59:03;;;;;;;18.70;7.47;;;;;;;;;;5002204;28;20040;-63
2021/10/18 03:01:31;;;;;;;21.35;7.82;;;;;;;;;;5001111;28;20025;-62
2021/10/18 03:03:57;;;;;;;16.58;7.35;;;;;;;;;;5020336;28;20064;-62
2021/10/18 03:06:23;;;;;;;23.02;6.32;;;;;;;;;;5022343;28;20033;-62
2021/10/18 03:08:48;;;;;;;16.33;6.90;;;;;;;;;;5002376;28;21059;-64
2021/10/18 03:11:17;;;;;;;15.30;7.00;;;;;;;;;;5020621;28;20516;-62
2021/10/18 03:13:42;;;;;;;19.55;7.05;;;;;;;;;;5019401;28;20028;-63
2021/10/18 03:16:11;;;;;;;12.60;6.65;;;;;;;;;;5021630;28;20020;-62
2021/10/18 03:18:37;;;;;;;16.88;7.32;;;;;;;;;;5020587;28;21044;-62
2021/10/18 03:21:03;;;;;;;15.88;7.53;;;;;;;;;;5017944;28;20515;-62
2021/10/18 03:23:29;;;;;;;13.40;6.97;;;;;;;;;;5018435;28;20033;-62
2021/10/18 03:25:54;;;;;;;27.83;7.70;;;;;;;;;;4999350;28;20031;-62
2021/10/18 03:28:20;;;;;;;17.98;7.15;;;;;;;;;;5004331;28;20702;-62
2021/10/18 03:30:46;;;;;;;12.93;6.60;;;;;;;;;;5002326;28;20097;-62
2021/10/18 03:33:15;;;;;;;14.02;6.80;;;;;;;;;;4987927;28;20036;-63
2021/10/18 03:35:41;;;;;;;12.52;6.25;;;;;;;;;;5020999;28;20078;-64
2021/10/18 03:38:06;;;;;;;22.20;7.60;;;;;;;;;;5004620;28;20029;-63
2021/10/18 03:40:35;;;;;;;26.13;7.93;;;;;;;;;;5002224;28;20025;-64
2021/10/18 03:43:03;;;;;;;19.38;8.23;;;;;;;;;;4988834;28;20067;-63
2021/10/18 03:45:31;;;;;;;13.25;7.60;;;;;;;;;;5020766;28;20315;-62
2021/10/18 03:47:56;;;;;;;15.20;7.22;;;;;;;;;;5019866;28;20033;-62
2021/10/18 03:50:25;;;;;;;15.05;7.97;;;;;;;;;;5002176;28;20025;-62
2021/10/18 03:52:50;;;;;;;20.02;7.95;;;;;;;;;;5020245;28;20050;-62
2021/10/18 03:55:16;;;;;;;19.85;8.20;;;;;;;;;;5001340;28;20025;-63
2021/10/18 03:57:42;;;;;;;15.02;7.78;;;;;;;;;;5001791;28;20033;-64
2021/10/18 04:00:08;;;;;;;23.90;8.82;;;;;;;;;;5004690;28;20033;-62
2021/10/18 04:02:33;;;;;;;18.65;9.23;;;;;;;;;;5019602;28;20116;-63
2021/10/18 04:05:02;;;;;;;15.65;9.00;;;;;;;;;;4987848;28;20499;-63
2021/10/18 04:07:30;;;;;;;17.42;8.55;;;;;;;;;;5001623;28;20029;-63
2021/10/18 04:09:55;;;;;;;16.08;8.68;;;;;;;;;;5020719;28;20039;-62
2021/10/18 04:12:20;;;;;;;17.35;9.32;;;;;;;;;;4987765;28;20044;-62
2021/10/18 04:14:48;;;;;;;21.17;7.85;;;;;;;;;;5019467;28;20029;-62
2021/10/18 04:17:14;;;;;;;20.63;8.95;;;;;;;;;;5020043;28;20678;-62
2021/10/18 04:19:40;;;;;;;19.52;9.20;;;;;;;;;;5002139;28;20029;-63
2021/10/18 04:22:08;;;;;;;20.90;8.48;;;;;;;;;;5016002;28;20939;-62
2021/10/18 04:24:33;;;;;;;21.58;8.38;;;;;;;;;;4998974;28;20116;-62
2021/10/18 04:27:01;;;;;;;16.38;8.50;;;;;;;;;;5020006;28;20040;-62
2021/10/18 04:29:27;;;;;;;18.25;9.13;;;;;;;;;;5019451;28;20029;-63
2021/10/18 04:31:58;;;;;;;19.25;8.85;;;;;;;;;;5019049;28;20033;-64
2021/10/18 04:34:24;;;;;;;18.35;8.13;;;;;;;;;;4987056;28;20052;-63
2021/10/18 04:36:52;;;;;;;15.55;8.85;;;;;;;;;;5004764;28;20120;-63
2021/10/18 04:39:17;;;;;;;15.85;8.70;;;;;;;;;;4984016;28;20063;-63
2021/10/18 04:41:46;;;;;;;17.85;8.75;;;;;;;;;;4998054;28;20061;-62
2021/10/18 04:44:13;;;;;;;18.42;9.50;;;;;;;;;;5003022;28;20071;-62
2021/10/18 04:46:43;;;;;;;19.38;8.68;;;;;;;;;;5019053;28;20051;-63
2021/10/18 04:49:11;;;;;;;15.45;8.18;;;;;;;;;;5018244;28;20029;-62
2021/10/18 04:51:37;;;;;;;13.43;8.68;;;;;;;;;;4982464;28;20035;-63
2021/10/18 04:54:03;;;;;;;22.65;9.27;;;;;;;;;;5017808;28;20102;-61
2021/10/18 04:56:29;;;;;;;23.33;9.60;;;;;;;;;;5018644;28;20119;-62
2021/10/18 04:58:59;;;;;;;18.13;9.23;;;;;;;;;;5017510;28;20025;-62
2021/10/18 05:01:24;;;;;;;16.45;8.32;;;;;;;;;;4992124;28;20422;-62
2021/10/18 05:03:50;;;;;;;18.70;9.55;;;;;;;;;;5002902;28;20037;-62
2021/10/18 05:06:15;;;;;;;21.27;9.50;;;;;;;;;;5018497;28;20043;-64
2021/10/18 05:08:40;;;;;;;20.48;9.52;;;;;;;;;;4998855;28;20022;-63
2021/10/18 05:11:06;;;;;;;20.35;9.90;;;;;;;;;;5018991;28;20033;-64
2021/10/18 05:13:32;;;;;;;17.35;9.35;;;;;;;;;;5000938;28;20017;-63
2021/10/18 05:15:59;;;;;;;21.00;10.23;;;;;;;;;;4986315;28;20068;-63
2021/10/18 05:18:25;;;;;;;24.65;10.30;;;;;;;;;;5002373;28;20036;-61
2021/10/18 05:20:51;;;;;;;18.40;9.57;;;;;;;;;;5003797;28;20037;-62
2021/10/18 05:23:21;;;;;;;19.00;10.32;;;;;;;;;;5017161;28;20052;-63
2021/10/18 05:25:46;;;;;;;20.98;9.70;;;;;;;;;;5003576;28;20047;-62
2021/10/18 05:28:12;;;;;;;21.67;9.68;;;;;;;;;;5005667;28;20032;-63
2021/10/18 05:30:38;;;;;;;25.02;10.60;;;;;;;;;;5005719;28;20515;-64
2021/10/18 05:33:11;;;;;;;18.95;10.32;;;;;;;;;;5001393;28;20033;-63
2021/10/18 05:35:37;;;;;;;20.95;11.05;;;;;;;;;;5020089;28;20083;-61
2021/10/18 05:38:07;;;;;;;20.77;10.05;;;;;;;;;;5018518;28;20025;-62
2021/10/18 05:40:37;;;;;;;28.30;11.23;;;;;;;;;;4995121;28;20645;-62
2021/10/18 05:43:03;;;;;;;21.55;10.90;;;;;;;;;;5018366;28;20095;-63
2021/10/18 05:45:33;;;;;;;26.65;11.13;;;;;;;;;;5008757;28;20033;-62
2021/10/18 05:48:02;;;;;;;25.02;10.38;;;;;;;;;;5020784;28;20168;-63
2021/10/18 05:50:40;;;;;;;22.17;11.02;;;;;;;;;;5021156;28;20096;-62
2021/10/18 05:53:06;;;;;;;29.58;11.80;;;;;;;;;;5023066;28;20080;-62
2021/10/18 05:55:31;;;;;;;21.42;11.35;;;;;;;;;;4999546;28;20057;-63
2021/10/18 05:58:00;;;;;;;26.58;12.13;;;;;;;;;;5021128;28;20029;-62
2021/10/18 06:00:33;;;;;;;22.83;11.07;;;;;;;;;;5021894;28;20020;-64
2021/10/18 06:02:59;;;;;;;29.52;11.70;;;;;;;;;;5020284;28;21366;-62
2021/10/18 06:05:24;;;;;;;27.00;11.50;;;;;;;;;;5020577;28;20055;-62
2021/10/18 06:07:54;;;;;;;24.95;10.82;;;;;;;;;;4988421;28;20567;-62
2021/10/18 06:10:20;;;;;;;27.60;11.38;;;;;;;;;;4976266;28;20044;-62
2021/10/18 06:12:46;;;;;;;26.90;11.20;;;;;;;;;;5018574;28;20026;-62
2021/10/18 06:15:14;;;;;;;24.33;12.00;;;;;;;;;;5022724;28;20061;-62
2021/10/18 06:17:42;;;;;;;21.55;10.82;;;;;;;;;;4987936;28;20044;-62
2021/10/18 06:20:08;;;;;;;22.48;11.05;;;;;;;;;;5021792;28;20064;-61
2021/10/18 06:22:34;;;;;;;25.60;11.15;;;;;;;;;;5001993;28;20480;-61
2021/10/18 06:24:59;;;;;;;29.08;11.95;;;;;;;;;;5003685;28;20038;-64
2021/10/18 06:27:25;;;;;;;28.00;11.30;;;;;;;;;;4997981;28;20025;-64
2021/10/18 06:29:50;;;;;;;25.85;12.07;;;;;;;;;;5019684;28;20037;-64
2021/10/18 06:32:16;;;;;;;26.98;11.88;;;;;;;;;;5001316;28;20194;-62
2021/10/18 06:34:41;;;;;;;22.77;10.98;;;;;;;;;;5019481;28;20033;-61
2021/10/18 06:37:10;;;;;;;19.90;11.05;;;;;;;;;;4991989;28;20156;-63
2021/10/18 06:39:36;;;;;;;22.00;11.68;;;;;;;;;;4998052;28;20041;-63
2021/10/18 06:42:01;;;;;;;30.75;11.35;;;;;;;;;;5005315;28;20025;-62
2021/10/18 06:44:27;;;;;;;23.52;12.32;;;;;;;;;;5021578;28;20147;-65
2021/10/18 06:46:53;;;;;;;19.92;11.38;;;;;;;;;;5004752;28;20029;-61
2021/10/18 06:49:18;;;;;;;25.17;11.50;;;;;;;;;;5022618;28;20124;-62
2021/10/18 06:51:54;;;;;;;20.13;10.88;;;;;;;;;;4986498;28;20039;-63
2021/10/18 06:54:21;;;;;;;29.52;12.07;;;;;;;;;;5019473;28;20040;-64
2021/10/18 06:56:46;;;;;;;25.30;11.60;;;;;;;;;;5006164;28;20021;-62
2021/10/18 06:59:13;;;;;;;19.50;11.18;;;;;;;;;;5018213;28;21109;-64
2021/10/18 07:01:38;;;;;;;22.95;11.45;;;;;;;;;;5005096;28;20460;-62
2021/10/18 07:04:04;;;;;;;20.58;10.77;;;;;;;;;;5003607;28;20068;-64
2021/10/18 07:06:30;;;;;;;26.13;11.15;;;;;;;;;;4994539;28;20037;-62
2021/10/18 07:08:58;;;;;;;21.55;11.45;;;;;;;;;;5019725;28;20082;-63
2021/10/18 07:11:26;;;;;;;20.00;10.65;;;;;;;;;;5004986;28;20033;-63
2021/10/18 07:13:52;;;;;;;21.70;11.20;;;;;;;;;;5001313;28;20042;-63
2021/10/18 07:16:18;;;;;;;27.70;11.15;;;;;;;;;;5010257;28;20025;-63
2021/10/18 07:18:43;;;;;;;21.92;11.02;;;;;;;;;;5007961;28;20029;-63
2021/10/18 07:21:09;;;;;;;21.65;11.20;;;;;;;;;;5001522;28;20417;-63
2021/10/18 07:23:34;;;;;;;22.90;10.88;;;;;;;;;;5020803;28;20040;-63
2021/10/18 07:26:07;;;;;;;23.10;10.48;;;;;;;;;;4999393;28;20025;-63
2021/10/18 07:28:32;;;;;;;23.58;11.15;;;;;;;;;;5001408;28;20045;-64
2021/10/18 07:30:59;;;;;;;22.10;11.27;;;;;;;;;;5020997;28;20036;-64
2021/10/18 07:33:25;;;;;;;25.17;10.60;;;;;;;;;;5002573;28;20095;-64
2021/10/18 07:35:55;;;;;;;21.85;10.80;;;;;;;;;;5004698;28;20439;-63
2021/10/18 07:38:24;;;;;;;22.17;10.88;;;;;;;;;;5020189;28;20128;-63
2021/10/18 07:40:52;;;;;;;18.77;10.52;;;;;;;;;;5022660;28;20060;-62
2021/10/18 07:43:18;;;;;;;19.02;9.38;;;;;;;;;;4986975;28;20049;-63
2021/10/18 07:45:45;;;;;;;20.90;10.00;;;;;;;;;;5023069;28;20048;-63
2021/10/18 07:48:13;;;;;;;20.55;9.80;;;;;;;;;;5013677;28;20049;-63
2021/10/18 07:50:38;;;;;;;21.50;9.88;;;;;;;;;;4991569;28;20075;-63
2021/10/18 07:53:04;;;;;;;16.30;9.10;;;;;;;;;;5002692;28;20395;-63
2021/10/18 07:55:34;;;;;;;22.02;10.90;;;;;;;;;;5003244;28;20400;-63
2021/10/18 07:57:59;;;;;;;24.58;9.45;;;;;;;;;;5021338;28;21991;-64
2021/10/18 08:00:25;;;;;;;18.88;9.18;;;;;;;;;;5018998;28;20040;-61
2021/10/18 08:02:50;;;;;;;17.95;10.65;;;;;;;;;;5005079;28;20038;-62
2021/10/18 08:05:16;;;;;;;18.63;9.95;;;;;;;;;;5019359;28;20041;-63
2021/10/18 08:07:43;;;;;;;21.10;9.85;;;;;;;;;;5003786;28;20041;-62
2021/10/18 08:10:08;;;;;;;18.60;10.15;;;;;;;;;;4998387;28;20025;-62
2021/10/18 08:12:37;;;;;;;18.98;9.55;;;;;;;;;;5022049;28;20060;-62
2021/10/18 08:15:07;;;;;;;21.08;9.20;;;;;;;;;;5004999;28;20640;-62
2021/10/18 08:17:33;;;;;;;19.58;9.70;;;;;;;;;;5020412;28;20052;-64
2021/10/18 08:19:58;;;;;;;19.52;9.93;;;;;;;;;;5007951;28;20028;-62
2021/10/18 08:22:23;;;;;;;17.48;8.82;;;;;;;;;;4987829;28;22146;-62
2021/10/18 08:24:49;;;;;;;20.17;9.23;;;;;;;;;;5003023;28;20021;-62
2021/10/18 08:27:15;;;;;;;19.08;9.02;;;;;;;;;;5007068;28;20127;-62
2021/10/18 08:29:43;;;;;;;23.38;9.63;;;;;;;;;;5019982;28;20025;-62
2021/10/18 08:32:12;;;;;;;16.33;9.75;;;;;;;;;;4992064;28;20033;-63
2021/10/18 08:34:37;;;;;;;19.05;9.43;;;;;;;;;;5019731;28;20373;-63
2021/10/18 08:37:05;;;;;;;16.55;9.38;;;;;;;;;;5000928;28;20064;-63
2021/10/18 08:42:20;;;;;;;18.02;9.77;;;;;;;;;;5020757;28;20448;-62
2021/10/18 08:44:47;;;;;;;20.88;10.45;;;;;;;;;;5005482;28;20021;-63
2021/10/18 08:47:13;;;;;;;18.90;9.95;;;;;;;;;;5022522;28;20080;-62
2021/10/18 08:49:43;;;;;;;15.82;9.82;;;;;;;;;;4988468;28;20028;-62
2021/10/18 08:52:09;;;;;;;16.40;9.07;;;;;;;;;;5003453;28;20097;-61
2021/10/18 08:54:38;;;;;;;21.42;10.93;;;;;;;;;;5002724;28;20071;-63
2021/10/18 08:57:06;;;;;;;18.13;9.52;;;;;;;;;;5018998;28;20033;-63
2021/10/18 08:59:32;;;;;;;20.75;9.90;;;;;;;;;;5021068;28;20037;-62
2021/10/18 09:02:00;;;;;;;18.08;9.35;;;;;;;;;;4987222;28;20420;-63
2021/10/18 09:04:31;;;;;;;17.98;9.40;;;;;;;;;;5021373;28;20029;-63
2021/10/18 09:06:59;;;;;;;16.10;9.57;;;;;;;;;;4993442;28;20171;-63
2021/10/18 09:09:29;;;;;;;21.60;10.15;;;;;;;;;;4988767;28;20033;-62
2021/10/18 09:11:55;;;;;;;16.02;9.07;;;;;;;;;;5021155;28;20330;-63
2021/10/18 09:14:21;;;;;;;17.92;8.55;;;;;;;;;;4987641;28;20432;-62
2021/10/18 09:16:47;;;;;;;15.75;9.07;;;;;;;;;;4986782;28;20037;-62
2021/10/18 09:19:17;;;;;;;16.00;8.77;;;;;;;;;;4990721;28;20392;-62
2021/10/18 09:21:47;;;;;;;24.85;10.20;;;;;;;;;;5019848;28;20025;-63
2021/10/18 09:24:31;;;;;;;17.48;9.38;;;;;;;;;;5022103;28;20020;-63
2021/10/18 09:27:02;;;;;;;13.70;8.48;;;;;;;;;;5021140;28;20029;-63
2021/10/18 09:29:34;;;;;;;16.48;9.25;;;;;;;;;;5021057;28;20024;-63
2021/10/18 09:32:01;;;;;;;14.80;8.18;;;;;;;;;;5019208;28;20040;-64
2021/10/18 09:34:31;;;;;;;12.93;8.73;;;;;;;;;;5019269;28;21427;-64
2021/10/18 09:37:04;;;;;;;17.20;9.23;;;;;;;;;;5004902;28;20033;-62
2021/10/18 09:39:30;;;;;;;18.98;10.05;;;;;;;;;;5000323;28;21306;-64
2021/10/18 09:42:00;;;;;;;16.95;9.43;;;;;;;;;;5004391;28;20081;-63
2021/10/18 09:45:03;;;;;;;16.20;9.68;;;;;;;;;;5020533;28;20847;-62
2021/10/18 10:54:31;;;;;;;17.48;9.15;;;;;;;;;;5020680;28;20064;-63
2021/10/18 10:57:03;;;;;;;;;;;;;;;;;;5021844;28;20459;-64
2021/10/18 10:59:33;;;;;;;14.52;9.32;;;;;;;;;;5006021;28;20397;-63
2021/10/18 11:02:02;;;;;;;12.35;8.30;;;;;;;;;;5004222;28;20242;-63
2021/10/18 11:04:35;;;;;;;20.65;9.15;;;;;;;;;;5020826;28;21988;-63
2021/10/18 11:07:07;;;;;;;18.55;8.85;;;;;;;;;;5022577;28;20033;-63
2021/10/18 11:09:40;;;;;;;17.30;8.93;;;;;;;;;;5005061;28;20133;-63
2021/10/18 11:12:12;;;;;;;16.90;8.90;;;;;;;;;;5019060;28;20029;-63
2021/10/18 11:14:39;;;;;;;15.45;8.85;;;;;;;;;;5005921;28;20028;-63
2021/10/18 11:17:07;;;;;;;14.18;7.97;;;;;;;;;;5020295;28;20894;-61
2021/10/18 11:19:40;;;;;;;13.02;8.20;;;;;;;;;;4992113;28;20032;-62
2021/10/18 11:22:08;;;;;;;16.67;9.10;;;;;;;;;;5021683;28;20040;-61
2021/10/18 11:24:41;;;;;;;14.98;8.88;;;;;;;;;;5006163;28;20029;-61
2021/10/18 11:27:11;;;;;;;16.05;8.98;;;;;;;;;;5023986;28;20065;-62
2021/10/18 11:29:37;;;;;;;14.23;7.85;;;;;;;;;;4993795;28;20039;-62
2021/10/18 11:32:11;;;;;;;14.48;8.25;;;;;;;;;;4989162;28;20037;-62
2021/10/18 11:34:38;;;;;;;13.00;7.88;;;;;;;;;;5024548;28;20681;-60
2021/10/18 11:37:07;;;;;;;11.82;7.07;;;;;;;;;;5024658;28;20037;-61
2021/10/18 11:39:33;;;;;;;11.95;7.78;;;;;;;;;;4993269;28;20450;-61
2021/10/18 11:42:05;;;;;;;12.18;7.80;;;;;;;;;;5005923;28;20111;-62
2021/10/18 11:44:40;;;;;;;12.23;7.65;;;;;;;;;;5024616;28;20107;-62
2021/10/18 11:47:29;;;;;;;15.50;8.20;;;;;;;;;;5005763;28;20033;-61
2021/10/18 11:50:03;;;;;;;14.95;8.10;;;;;;;;;;5020879;28;20033;-61
2021/10/18 11:52:31;;;;;;;13.68;7.57;;;;;;;;;;5006972;28;20039;-62
2021/10/18 11:54:56;;;;;;;15.48;8.68;;;;;;;;;;4993556;28;20159;-63
2021/10/18 11:57:24;;;;;;;15.68;8.82;;;;;;;;;;5022986;28;20420;-63
2021/10/18 11:59:50;;;;;;;15.02;8.40;;;;;;;;;;5020163;28;20024;-63
2021/10/18 12:02:19;;;;;;;14.32;7.88;;;;;;;;;;5007754;28;20037;-62
2021/10/18 12:04:53;;;;;;;11.73;6.97;;;;;;;;;;5008805;28;20882;-62
2021/10/18 12:07:36;;;;;;;14.35;8.18;;;;;;;;;;5012255;28;20120;-61
2021/10/18 12:10:15;;;;;;;12.73;8.38;;;;;;;;;;5024646;28;20028;-61
2021/10/18 12:13:00;;;;;;;15.73;7.85;;;;;;;;;;5023037;28;20421;-62
2021/10/18 12:15:26;;;;;;;15.75;8.18;;;;;;;;;;5023149;28;20029;-64
2021/10/18 12:17:51;;;;;;;16.13;8.57;;;;;;;;;;5021688;28;20024;-61
2021/10/18 12:20:17;;;;;;;15.05;8.07;;;;;;;;;;5023890;28;20037;-62
2021/10/18 12:23:01;;;;;;;17.52;7.65;;;;;;;;;;4989000;28;20136;-64
2021/10/18 12:25:29;;;;;;;15.82;7.53;;;;;;;;;;5023993;28;20056;-61
2021/10/18 12:27:59;;;;;;;15.02;7.78;;;;;;;;;;5004626;28;22009;-61
2021/10/18 12:30:37;;;;;;;13.93;8.00;;;;;;;;;;4995099;28;20033;-62
2021/10/18 12:33:10;;;;;;;13.55;8.45;;;;;;;;;;5001280;28;20060;-63
2021/10/18 12:35:38;;;;;;;16.10;7.95;;;;;;;;;;5007213;28;20460;-62
2021/10/18 12:38:27;;;;;;;19.63;8.13;;;;;;;;;;5003609;28;20492;-62
2021/10/18 12:41:05;;;;;;;15.95;7.90;;;;;;;;;;5018554;28;20045;-63
2021/10/18 12:43:33;;;;;;;14.25;7.68;;;;;;;;;;5022002;28;20120;-62
2021/10/18 12:46:12;;;;;;;14.77;8.38;;;;;;;;;;4992673;28;20074;-62
2021/10/18 12:48:41;;;;;;;13.45;7.80;;;;;;;;;;5020594;28;20151;-63
2021/10/18 12:51:09;;;;;;;17.30;8.70;;;;;;;;;;5017382;28;20132;-62
2021/10/18 12:53:37;;;;;;;16.17;8.23;;;;;;;;;;4985683;28;20095;-63
2021/10/18 12:56:02;;;;;;;15.25;8.35;;;;;;;;;;5006932;28;20127;-63
2021/10/18 12:58:33;;;;;;;14.95;8.32;;;;;;;;;;5005210;28;20382;-61
2021/10/18 13:00:58;;;;;;;15.98;9.02;;;;;;;;;;5023273;28;20041;-62
2021/10/18 13:03:33;;;;;;;14.15;7.82;;;;;;;;;;5020367;28;21256;-62
2021/10/18 13:05:59;;;;;;;12.15;7.25;;;;;;;;;;5005057;28;20075;-62
2021/10/18 13:08:26;;;;;;;14.80;8.38;;;;;;;;;;5021500;28;20493;-62
2021/10/18 13:10:52;;;;;;;15.30;7.22;;;;;;;;;;5023049;28;20025;-61
2021/10/18 13:13:19;;;;;;;11.95;7.05;;;;;;;;;;5022587;28;20039;-61
2021/10/18 13:15:46;;;;;;;10.80;6.88;;;;;;;;;;5005439;28;20041;-63
2021/10/18 13:18:12;;;;;;;10.35;6.88;;;;;;;;;;5021549;28;20036;-61
2021/10/18 13:20:38;;;;;;;15.13;7.57;;;;;;;;;;5023230;28;20037;-62
2021/10/18 13:23:08;;;;;;;17.40;7.68;;;;;;;;;;5020651;28;20056;-62
2021/10/18 13:25:37;;;;;;;15.13;7.20;;;;;;;;;;5020031;28;20428;-63
2021/10/18 13:28:03;;;;;;;16.05;7.35;;;;;;;;;;5007482;28;20077;-62
2021/10/18 13:30:29;;;;;;;11.15;6.07;;;;;;;;;;5019880;28;20122;-63
2021/10/18 13:32:55;;;;;;;16.10;6.97;;;;;;;;;;5018725;28;20115;-62
2021/10/18 13:35:21;;;;;;;11.10;7.18;;;;;;;;;;5001799;28;20152;-63
2021/10/18 13:37:46;;;;;;;14.45;7.53;;;;;;;;;;5021647;28;20128;-62
2021/10/18 13:40:15;;;;;;;13.07;7.45;;;;;;;;;;5023453;28;20049;-61
2021/10/18 13:42:42;;;;;;;14.88;7.32;;;;;;;;;;5020103;28;20575;-64
2021/10/18 13:45:08;;;;;;;10.93;7.00;;;;;;;;;;5022016;28;20025;-64
2021/10/18 13:47:37;;;;;;;17.55;7.32;;;;;;;;;;5020785;28;20503;-61
2021/10/18 13:50:04;;;;;;;12.55;6.93;;;;;;;;;;4985778;28;20037;-62
2021/10/18 13:52:32;;;;;;;17.52;7.47;;;;;;;;;;5021436;28;20046;-62
2021/10/18 13:55:00;;;;;;;15.68;6.82;;;;;;;;;;5004693;28;20122;-62
2021/10/18 13:57:29;;;;;;;13.30;7.70;;;;;;;;;;5004894;28;20029;-63
2021/10/18 13:59:55;;;;;;;13.18;7.22;;;;;;;;;;4981549;28;20025;-61
2021/10/18 14:02:22;;;;;;;12.00;7.20;;;;;;;;;;4988891;28;20534;-61
2021/10/18 14:04:50;;;;;;;16.70;7.47;;;;;;;;;;5022336;28;20127;-61
2021/10/18 14:07:16;;;;;;;15.20;7.45;;;;;;;;;;5021320;28;20029;-61
2021/10/18 14:09:42;;;;;;;15.27;6.30;;;;;;;;;;5019292;28;20392;-62
2021/10/18 14:12:08;;;;;;;14.00;7.40;;;;;;;;;;5021915;28;20060;-61
2021/10/18 14:14:36;;;;;;;12.80;7.30;;;;;;;;;;5022156;28;20037;-60
2021/10/18 14:17:04;;;;;;;15.48;7.28;;;;;;;;;;5005584;28;20156;-61
2021/10/18 14:19:32;;;;;;;12.55;6.32;;;;;;;;;;4985417;28;20017;-62
2021/10/18 14:21:58;;;;;;;14.27;8.13;;;;;;;;;;4990423;28;20628;-60
2021/10/18 14:24:23;;;;;;;17.50;7.30;;;;;;;;;;4990644;28;20164;-61
2021/10/18 14:26:51;;;;;;;13.50;6.85;;;;;;;;;;5013610;28;20097;-60
2021/10/18 14:29:17;;;;;;;19.48;7.68;;;;;;;;;;5019515;28;20021;-62
2021/10/18 14:31:45;;;;;;;13.13;7.03;;;;;;;;;;5005694;28;20036;-61
2021/10/18 14:34:13;;;;;;;12.68;6.68;;;;;;;;;;5001200;28;20033;-61
2021/10/18 14:36:39;;;;;;;17.02;6.95;;;;;;;;;;4991710;28;20144;-61
2021/10/18 14:39:08;;;;;;;21.00;7.35;;;;;;;;;;5004815;28;20170;-61
2021/10/18 14:41:33;;;;;;;12.98;6.68;;;;;;;;;;5002448;28;20142;-61
2021/10/18 14:44:01;;;;;;;14.02;6.47;;;;;;;;;;4999821;28;20032;-61
2021/10/18 14:46:28;;;;;;;16.42;7.03;;;;;;;;;;5020135;28;20075;-61
2021/10/18 14:48:54;;;;;;;16.75;8.00;;;;;;;;;;4998381;28;20048;-62
2021/10/18 14:51:22;;;;;;;15.77;7.45;;;;;;;;;;5021770;28;20033;-61
2021/10/18 14:53:50;;;;;;;14.88;8.10;;;;;;;;;;5020396;28;20597;-63
2021/10/18 14:56:17;;;;;;;13.90;6.75;;;;;;;;;;5022750;28;20664;-62
2021/10/18 14:58:42;;;;;;;12.05;7.15;;;;;;;;;;5001136;28;20041;-64
2021/10/18 15:01:11;;;;;;;14.60;6.72;;;;;;;;;;5007440;28;20105;-62
2021/10/18 15:03:37;;;;;;;19.13;6.93;;;;;;;;;;5002958;28;20040;-61
2021/10/18 15:06:03;;;;;;;14.18;7.10;;;;;;;;;;5007111;28;20052;-62
2021/10/18 15:08:28;;;;;;;12.52;7.25;;;;;;;;;;5024822;28;20155;-61
2021/10/18 15:10:54;;;;;;;18.50;7.00;;;;;;;;;;4995065;28;20124;-62
2021/10/18 15:13:21;;;;;;;15.95;6.90;;;;;;;;;;4992173;28;20037;-62
2021/10/18 15:15:50;;;;;;;14.93;6.55;;;;;;;;;;5009271;28;20059;-62
2021/10/18 15:18:15;;;;;;;13.57;7.00;;;;;;;;;;4990228;28;20045;-61
2021/10/18 15:20:41;;;;;;;14.65;6.57;;;;;;;;;;5025075;28;20156;-62
2021/10/18 15:23:06;;;;;;;13.20;6.97;;;;;;;;;;4991887;28;20491;-63
2021/10/18 15:25:36;;;;;;;13.77;7.75;;;;;;;;;;5009055;28;20033;-62
2021/10/18 15:28:07;;;;;;;11.25;7.22;;;;;;;;;;5008873;28;20047;-62
2021/10/18 15:30:35;;;;;;;20.35;7.75;;;;;;;;;;5005741;28;20380;-62
2021/10/18 15:33:01;;;;;;;11.75;6.85;;;;;;;;;;5023537;28;20036;-61
2021/10/18 15:35:31;;;;;;;12.82;6.70;;;;;;;;;;5004082;28;20433;-61
2021/10/18 15:37:59;;;;;;;12.23;6.97;;;;;;;;;;5024397;28;22221;-61
2021/10/18 15:40:27;;;;;;;20.08;7.43;;;;;;;;;;4992849;28;20057;-61